Time;durP1;ratioP1;P1;durP2;ratioP2;P2;SDS_P1;SDS_P2;PMS_P1;PMS_P2;Temp;Humidity;BMP_temperature;BMP_pressure;BME280_temperature;BME280_humidity;BME280_pressure;Samples;Min_cycle;Max_cycle;Signal;HPM_P1;HPM_P2
2022/06/13 00:01:38;;;;;;;4.80;3.28;;;;;;;13.43;72.98;98768.63;4170600;28;20041;-71
2022/06/13 00:03:39;;;;;;;4.28;3.05;;;;;;;13.40;73.21;98756.28;4171032;28;20052;-71
2022/06/13 00:05:39;;;;;;;4.60;2.67;;;;;;;13.44;73.08;98754.31;4171274;28;20551;-71
2022/06/13 00:07:40;;;;;;;4.97;3.08;;;;;;;13.48;72.48;98757.09;4170515;28;20473;-71
2022/06/13 00:09:40;;;;;;;5.38;2.92;;;;;;;13.48;72.62;98759.88;4169445;28;20391;-71
2022/06/13 00:11:41;;;;;;;5.28;3.55;;;;;;;13.50;72.81;98765.88;4170715;28;20062;-71
2022/06/13 00:13:44;;;;;;;6.85;3.53;;;;;;;13.48;72.07;98755.13;4170440;28;20136;-71
2022/06/13 00:15:44;;;;;;;3.53;2.95;;;;;;;13.52;72.42;98752.38;4170290;28;20029;-71
2022/06/13 00:17:44;;;;;;;4.55;2.95;;;;;;;13.54;72.46;98754.75;4170648;28;20132;-71
2022/06/13 00:19:45;;;;;;;6.07;2.95;;;;;;;13.53;72.64;98764.28;4170098;28;20033;-72
2022/06/13 00:21:45;;;;;;;5.57;3.15;;;;;;;13.49;72.68;98765.09;4170409;28;20481;-71
2022/06/13 00:23:46;;;;;;;6.95;3.00;;;;;;;13.48;71.96;98754.31;4170342;28;20029;-71
2022/06/13 00:25:47;;;;;;;6.10;2.92;;;;;;;13.56;71.36;98760.72;4170758;28;20396;-71
2022/06/13 00:27:48;;;;;;;4.15;3.03;;;;;;;13.60;71.15;98758.75;4170547;28;20188;-71
2022/06/13 00:29:49;;;;;;;4.78;2.88;;;;;;;13.64;71.08;98751.22;4169601;28;20052;-71
2022/06/13 00:31:49;;;;;;;4.25;3.08;;;;;;;13.70;71.18;98750.44;4170428;28;20572;-71
2022/06/13 00:33:50;;;;;;;6.32;3.25;;;;;;;13.69;70.82;98750.84;4170760;28;20064;-71
2022/06/13 00:35:51;;;;;;;5.57;3.13;;;;;;;13.67;71.05;98758.78;4169133;28;20078;-71
2022/06/13 00:37:52;;;;;;;11.63;4.30;;;;;;;13.62;71.46;98748.84;4169660;28;20039;-71
2022/06/13 00:39:52;;;;;;;7.30;3.20;;;;;;;13.60;71.39;98750.41;4169149;28;20431;-72
2022/06/13 00:41:53;;;;;;;3.42;2.90;;;;;;;13.55;71.91;98742.44;4170333;28;20032;-72
2022/06/13 00:43:54;;;;;;;7.38;2.90;;;;;;;13.61;71.41;98750.03;4170121;28;20037;-72
2022/06/13 00:45:54;;;;;;;4.10;3.15;;;;;;;13.51;71.71;98750.78;4169863;28;20049;-71
2022/06/13 00:47:55;;;;;;;4.00;3.17;;;;;;;13.47;71.67;98756.31;4170645;28;20029;-71
2022/06/13 00:49:55;;;;;;;8.15;3.45;;;;;;;13.44;72.24;98754.31;4169443;28;20036;-72
2022/06/13 00:52:18;;;;;;;7.93;3.70;;;;;;;13.42;71.92;98753.13;4169425;28;20126;-72
2022/06/13 00:54:20;;;;;;;5.22;3.15;;;;;;;13.40;72.55;98750.72;4170799;28;20079;-72
2022/06/13 00:56:25;;;;;;;6.18;3.30;;;;;;;13.35;72.53;98747.53;4170733;28;20048;-72
2022/06/13 00:58:29;;;;;;;5.40;2.85;;;;;;;13.39;72.28;98748.34;4169364;28;20376;-72
2022/06/13 01:00:30;;;;;;;6.72;3.08;;;;;;;13.39;72.22;98748.34;4170258;28;20028;-72
2022/06/13 01:02:31;;;;;;;4.27;3.30;;;;;;;13.36;72.22;98758.25;4170269;28;20033;-71
2022/06/13 01:04:32;;;;;;;6.80;3.47;;;;;;;13.31;72.71;98760.59;4170525;28;20029;-71
2022/06/13 01:06:36;;;;;;;6.38;3.38;;;;;;;13.31;72.27;98763.38;4170056;28;20024;-71
2022/06/13 01:08:38;;;;;;;6.43;3.47;;;;;;;13.40;72.31;98769.38;4169382;28;20048;-71
2022/06/13 01:13:07;;;;;;;6.63;2.80;;;;;;;13.40;72.56;98769.38;4169090;28;20040;-72
2022/06/13 01:15:07;;;;;;;;;;;;;;;13.37;72.63;98768.19;4170540;28;20024;-71
2022/06/13 01:17:16;;;;;;;4.30;2.80;;;;;;;13.34;72.85;98768.19;4170533;28;19954;-72
2022/06/13 01:19:25;;;;;;;6.85;3.30;;;;;;;13.37;72.81;98775.72;4169586;28;20032;-71
2022/06/13 01:21:53;;;;;;;4.95;3.10;;;;;;;13.31;73.03;98774.50;4169681;28;20104;-71
2022/06/13 01:24:09;;;;;;;4.95;2.83;;;;;;;13.31;72.86;98780.84;4169799;28;20118;-71
2022/06/13 01:26:24;;;;;;;3.90;3.10;;;;;;;13.28;72.91;98778.06;4169506;28;20037;-71
2022/06/13 01:28:48;;;;;;;4.40;2.75;;;;;;;13.28;73.62;98778.84;4169714;28;20056;-72
2022/06/13 01:31:09;;;;;;;5.05;2.85;;;;;;;13.26;73.44;98786.78;4169492;28;20041;-72
2022/06/13 01:33:32;;;;;;;6.38;2.90;;;;;;;13.27;73.43;98793.94;4170075;28;20488;-72
2022/06/13 01:36:11;;;;;;;4.85;2.90;;;;;;;13.29;73.22;98799.91;4169151;28;20108;-71
2022/06/13 01:38:33;;;;;;;6.40;2.97;;;;;;;13.32;73.14;98796.38;4169384;28;20040;-71
2022/06/13 01:40:43;;;;;;;5.50;3.05;;;;;;;13.26;74.00;98788.78;4169241;28;20139;-71
2022/06/13 01:42:43;;;;;;;6.32;2.95;;;;;;;13.22;74.32;98788.75;4169241;28;20123;-71
2022/06/13 01:45:02;;;;;;;4.30;2.88;;;;;;;13.18;74.47;98780.38;4169886;28;20491;-71
2022/06/13 01:47:21;;;;;;;4.75;2.53;;;;;;;13.16;74.49;98785.53;4169858;28;20425;-71
2022/06/13 01:49:32;;;;;;;6.43;2.80;;;;;;;13.10;74.73;98780.72;4168137;28;20029;-71
2022/06/13 01:51:35;;;;;;;6.25;3.22;;;;;;;13.05;74.82;98776.31;4169261;28;20036;-71
2022/06/13 01:53:48;;;;;;;6.68;3.33;;;;;;;13.05;75.31;98786.63;4169942;28;20373;-72
2022/06/13 01:56:00;;;;;;;4.40;2.70;;;;;;;13.07;74.83;98785.03;4169808;28;20029;-71
2022/06/13 01:58:04;;;;;;;5.50;3.08;;;;;;;13.03;75.27;98786.22;4169984;28;20106;-71
2022/06/13 02:00:27;;;;;;;7.00;2.80;;;;;;;13.01;75.10;98785.81;4168858;28;20106;-71
2022/06/13 02:02:38;;;;;;;7.18;2.83;;;;;;;12.99;75.18;98786.22;4169705;28;20029;-72
2022/06/13 02:04:49;;;;;;;5.80;3.03;;;;;;;13.04;75.13;98790.59;4168945;28;20037;-71
2022/06/13 02:07:00;;;;;;;10.43;3.30;;;;;;;13.01;75.16;98792.16;4169114;28;20029;-71
2022/06/13 02:09:07;;;;;;;6.32;2.78;;;;;;;12.99;75.10;98786.22;4169181;28;20090;-71
2022/06/13 02:11:19;;;;;;;3.90;2.88;;;;;;;13.01;75.65;98799.69;4170028;28;20040;-71
2022/06/13 02:13:31;;;;;;;6.43;2.70;;;;;;;12.98;75.36;98798.47;4168976;28;20778;-71
2022/06/13 02:15:48;;;;;;;5.22;2.65;;;;;;;12.93;75.12;98799.66;4169827;28;20119;-71
2022/06/13 02:18:02;;;;;;;5.10;2.53;;;;;;;12.88;75.16;98802.78;4169760;28;20124;-71
2022/06/13 02:20:13;;;;;;;4.88;3.30;;;;;;;12.79;75.59;98801.53;4168299;28;20068;-71
2022/06/13 02:22:21;;;;;;;5.78;3.35;;;;;;;12.68;76.31;98793.13;4169536;28;20029;-71
2022/06/13 02:24:28;;;;;;;2.85;2.50;;;;;;;12.54;76.18;98791.00;4169453;28;20029;-71
2022/06/13 02:26:34;;;;;;;6.07;3.15;;;;;;;12.46;76.73;98785.78;4169315;28;20075;-71
2022/06/13 02:28:40;;;;;;;5.47;3.25;;;;;;;12.38;77.99;98790.47;4169045;28;20032;-71
2022/06/13 02:31:20;;;;;;;7.63;3.17;;;;;;;12.32;78.47;98778.09;4168629;28;20116;-71
2022/06/13 02:33:28;;;;;;;6.93;3.28;;;;;;;12.27;78.87;98786.81;4162780;28;20060;-71
2022/06/13 02:35:35;;;;;;;4.97;3.17;;;;;;;12.28;78.60;98789.19;4168989;28;20029;-72
2022/06/13 02:37:44;;;;;;;5.30;3.90;;;;;;;12.24;79.06;98784.78;4169184;28;20033;-71
2022/06/13 02:40:00;;;;;;;5.00;3.15;;;;;;;12.23;79.14;98780.41;4168636;28;20017;-71
2022/06/13 02:42:09;;;;;;;5.88;3.25;;;;;;;12.23;79.26;98780.41;4169473;28;20052;-72
2022/06/13 02:44:24;;;;;;;7.78;3.20;;;;;;;12.26;79.00;98787.97;4168637;28;20056;-72
2022/06/13 02:46:34;;;;;;;3.83;3.10;;;;;;;12.24;78.88;98785.56;4169522;28;20017;-71
2022/06/13 02:48:44;;;;;;;4.45;2.97;;;;;;;12.18;79.34;98787.13;4168860;28;20037;-71
2022/06/13 02:50:54;;;;;;;5.65;3.03;;;;;;;12.16;78.83;98785.88;4168671;28;20071;-71
2022/06/13 02:53:10;;;;;;;6.18;3.47;;;;;;;12.17;79.06;98793.84;4169206;28;20736;-71
2022/06/13 02:55:13;;;;;;;9.40;3.80;;;;;;;12.17;78.88;98791.06;4169438;28;20388;-72
2022/06/13 02:57:32;;;;;;;6.00;3.80;;;;;;;12.16;78.38;98791.44;4169173;28;20104;-71
2022/06/13 02:59:40;;;;;;;5.00;3.00;;;;;;;12.13;78.46;98786.66;4168533;28;20028;-72
2022/06/13 03:01:46;;;;;;;4.53;2.95;;;;;;;12.09;79.17;98794.94;4168639;28;20049;-71
2022/06/13 03:04:11;;;;;;;6.03;2.67;;;;;;;12.02;79.32;98792.09;4170914;28;20334;-71
2022/06/13 03:06:15;;;;;;;7.22;3.72;;;;;;;11.99;79.09;98799.19;4170578;28;20103;-71
2022/06/13 03:08:27;;;;;;;4.88;3.25;;;;;;;11.91;79.78;98797.50;4171706;28;20083;-71
2022/06/13 03:11:20;;;;;;;9.88;3.38;;;;;;;11.87;79.53;98791.13;4171803;28;20036;-71
2022/06/13 03:13:31;;;;;;;3.63;2.90;;;;;;;11.86;78.80;98785.97;4153871;28;20033;-71
2022/06/13 03:15:45;;;;;;;5.78;3.33;;;;;;;11.91;78.35;98788.38;4171654;28;20060;-72
2022/06/13 03:17:52;;;;;;;4.65;2.95;;;;;;;11.88;78.87;98778.88;4171766;28;20051;-71
2022/06/13 03:20:01;;;;;;;5.25;3.00;;;;;;;11.86;78.72;98781.22;4171087;28;20040;-72
2022/06/13 03:22:15;;;;;;;5.60;3.10;;;;;;;11.91;78.09;98789.19;4169955;28;20095;-71
2022/06/13 03:24:42;;;;;;;5.70;2.92;;;;;;;11.95;77.97;98786.47;4172045;28;20051;-71
2022/06/13 03:26:49;;;;;;;5.90;3.55;;;;;;;11.94;78.45;98798.75;4168011;28;20056;-71
2022/06/13 03:28:55;;;;;;;5.82;3.53;;;;;;;11.87;78.97;98795.88;4171409;28;20112;-71
2022/06/13 03:31:02;;;;;;;8.98;3.28;;;;;;;11.78;79.95;98798.94;4171655;28;20051;-72
2022/06/13 03:35:38;;;;;;;4.85;3.40;;;;;;;11.76;79.62;98787.41;4172681;28;20028;-72
2022/06/13 03:37:44;;;;;;;5.40;3.13;;;;;;;11.73;80.14;98790.94;4171810;28;20098;-72
2022/06/13 03:40:01;;;;;;;6.28;3.47;;;;;;;11.71;80.46;98794.09;4171575;28;20194;-71
2022/06/13 03:42:07;;;;;;;5.82;3.15;;;;;;;11.73;80.28;98791.72;4171144;28;20032;-71
2022/06/13 03:44:17;;;;;;;9.88;3.47;;;;;;;11.74;80.73;98790.56;4171082;28;20813;-71
2022/06/13 03:46:27;;;;;;;9.23;3.80;;;;;;;11.80;80.40;98797.41;4171475;28;20033;-71
2022/06/13 03:48:42;;;;;;;5.93;3.60;;;;;;;11.85;80.23;98801.81;4170985;28;20074;-71
2022/06/13 03:51:14;;;;;;;7.88;3.30;;;;;;;11.96;79.90;98808.25;4171244;28;20029;-71
2022/06/13 03:53:23;;;;;;;7.25;3.55;;;;;;;11.99;79.98;98810.28;4170420;28;20083;-71
2022/06/13 03:55:30;;;;;;;6.28;4.00;;;;;;;12.08;79.91;98818.28;4171452;28;20423;-71
2022/06/13 03:57:38;;;;;;;12.68;4.03;;;;;;;12.17;79.80;98813.25;4172115;28;20033;-71
2022/06/13 03:59:45;;;;;;;6.47;3.78;;;;;;;12.25;79.78;98805.81;4170948;28;20128;-71
2022/06/13 04:01:51;;;;;;;7.03;3.80;;;;;;;12.30;79.78;98811.78;4171516;28;20079;-71
2022/06/13 04:03:56;;;;;;;5.57;3.33;;;;;;;12.40;79.35;98812.28;4171943;28;20456;-71
2022/06/13 04:05:56;;;;;;;9.18;4.70;;;;;;;12.44;79.39;98808.38;4171636;28;20107;-72
2022/06/13 04:07:58;;;;;;;5.13;3.20;;;;;;;12.51;78.82;98816.75;4171615;28;20059;-72
2022/06/13 04:10:15;;;;;;;11.85;4.00;;;;;;;12.53;78.65;98810.81;4168730;28;20036;-71
2022/06/13 04:12:27;;;;;;;7.15;3.65;;;;;;;12.55;78.86;98811.22;4171083;28;20029;-71
2022/06/13 04:15:20;;;;;;;8.77;3.83;;;;;;;12.56;78.78;98824.72;4170948;28;20032;-70
2022/06/13 04:17:25;;;;;;;5.78;3.30;;;;;;;12.60;78.68;98822.00;4152801;28;20033;-71
2022/06/13 04:19:56;;;;;;;8.20;3.55;;;;;;;12.66;78.30;98817.69;4170479;28;20059;-71
2022/06/13 04:22:22;;;;;;;4.50;3.35;;;;;;;12.73;78.26;98814.16;4130128;28;20484;-71
2022/06/13 04:24:58;;;;;;;5.25;3.28;;;;;;;12.75;77.72;98818.16;4170940;28;20036;-71
2022/06/13 04:27:11;;;;;;;8.68;3.72;;;;;;;12.78;77.41;98822.94;4170584;28;20508;-71
2022/06/13 04:29:21;;;;;;;5.70;3.40;;;;;;;12.88;77.28;98819.44;4170387;28;20037;-71
2022/06/13 04:31:23;;;;;;;5.75;3.25;;;;;;;12.88;77.03;98815.88;4170723;28;20749;-71
2022/06/13 04:33:33;;;;;;;5.97;3.70;;;;;;;12.91;77.08;98817.88;4170544;28;20467;-72
2022/06/13 04:35:35;;;;;;;5.68;3.10;;;;;;;12.94;76.89;98819.88;4170770;28;20033;-71
2022/06/13 04:37:37;;;;;;;6.60;3.40;;;;;;;12.99;76.63;98827.88;4171120;28;20098;-71
2022/06/13 04:39:40;;;;;;;6.93;3.35;;;;;;;13.01;77.17;98821.94;4170592;28;20283;-71
2022/06/13 04:41:44;;;;;;;4.55;3.75;;;;;;;13.07;77.10;98823.94;4171113;28;20029;-71
2022/06/13 04:43:50;;;;;;;6.82;3.60;;;;;;;13.14;76.37;98828.75;4171082;28;20133;-71
2022/06/13 04:45:58;;;;;;;5.57;3.22;;;;;;;13.27;76.10;98837.59;4169672;28;20037;-71
2022/06/13 04:48:00;;;;;;;7.32;3.60;;;;;;;13.33;75.64;98839.63;4170150;28;20086;-71
2022/06/13 04:50:02;;;;;;;6.20;3.30;;;;;;;13.42;75.38;98837.31;4169142;28;20055;-71
2022/06/13 04:52:12;;;;;;;6.03;3.65;;;;;;;13.46;75.47;98840.09;4169693;28;20138;-71
2022/06/13 04:54:23;;;;;;;6.90;3.50;;;;;;;13.53;75.05;98848.47;4170962;28;20017;-71
2022/06/13 04:56:24;;;;;;;7.15;3.55;;;;;;;13.46;75.28;98843.66;4169874;28;20020;-71
2022/06/13 04:58:28;;;;;;;5.25;3.00;;;;;;;13.59;75.42;98846.13;4169132;28;20067;-71
2022/06/13 05:00:31;;;;;;;8.32;3.53;;;;;;;13.65;75.10;98852.91;4168852;28;20044;-71
2022/06/13 05:02:41;;;;;;;9.73;3.65;;;;;;;13.67;74.63;98856.91;4170179;28;20028;-72
2022/06/13 05:04:42;;;;;;;5.78;3.60;;;;;;;13.70;75.00;98855.31;4169770;28;20064;-71
2022/06/13 05:06:54;;;;;;;6.38;3.10;;;;;;;13.68;75.30;98858.50;4169659;28;20511;-71
2022/06/13 05:08:58;;;;;;;5.75;3.35;;;;;;;13.69;74.88;98859.28;4169621;28;20056;-71
2022/06/13 05:11:31;;;;;;;8.38;3.13;;;;;;;13.73;75.14;98860.88;4170263;28;20512;-71
2022/06/13 05:13:32;;;;;;;5.07;3.38;;;;;;;13.73;75.60;98871.22;4169584;28;20452;-71
2022/06/13 05:15:33;;;;;;;5.40;3.17;;;;;;;13.71;76.15;98868.81;4170459;28;20032;-71
2022/06/13 05:17:53;;;;;;;5.25;2.97;;;;;;;13.74;75.49;98867.28;4170216;28;20086;-71
2022/06/13 05:19:56;;;;;;;6.90;3.50;;;;;;;13.75;75.80;98877.19;4170039;28;20295;-71
2022/06/13 05:22:09;;;;;;;6.93;3.47;;;;;;;13.73;76.21;98874.00;4170089;28;20116;-71
2022/06/13 05:24:27;;;;;;;;;;;;;;;13.77;76.26;98870.06;4170569;28;20393;-72
2022/06/13 05:26:29;;;;;;;8.02;3.17;;;;;;;13.81;76.01;98869.25;4169664;28;20015;-72
2022/06/13 05:28:31;;;;;;;7.95;2.85;;;;;;;13.83;75.50;98878.84;4169183;28;20028;-71
2022/06/13 05:30:31;;;;;;;;;;;;;;;13.92;75.15;98884.03;4170624;28;20025;-71
2022/06/13 05:32:32;;;;;;;5.43;3.60;;;;;;;13.97;75.58;98886.44;4170613;28;20213;-71
2022/06/13 05:34:36;;;;;;;4.90;4.10;;;;;;;14.04;75.62;98881.69;4170347;28;20055;-71
2022/06/13 05:36:37;;;;;;;3.53;2.80;;;;;;;14.12;75.67;98870.59;4168899;28;20197;-72
2022/06/13 05:38:45;;;;;;;6.07;3.00;;;;;;;14.22;75.09;98869.81;4169594;28;20105;-71
2022/06/13 05:40:45;;;;;;;4.32;3.25;;;;;;;14.32;74.99;98866.28;4170078;28;20091;-71
2022/06/13 05:42:47;;;;;;;6.68;3.00;;;;;;;14.43;74.46;98869.91;4169900;28;20399;-71
2022/06/13 05:44:47;;;;;;;8.27;3.00;;;;;;;14.54;73.37;98879.09;4169959;28;20072;-71
2022/06/13 05:46:47;;;;;;;11.90;3.20;;;;;;;14.63;74.13;98869.56;4169504;28;20098;-71
2022/06/13 05:48:51;;;;;;;5.07;3.22;;;;;;;14.66;72.97;98871.56;4169772;28;20037;-72
2022/06/13 05:50:52;;;;;;;6.00;2.75;;;;;;;14.69;72.72;98860.41;4168536;28;20029;-71
2022/06/13 05:52:53;;;;;;;7.20;3.00;;;;;;;14.78;72.75;98866.38;4169802;28;20111;-71
2022/06/13 05:54:53;;;;;;;6.53;3.30;;;;;;;14.86;72.79;98869.97;4169986;28;20450;-71
2022/06/13 05:56:53;;;;;;;8.80;3.40;;;;;;;14.82;73.51;98866.41;4170215;28;20059;-71
2022/06/13 05:58:55;;;;;;;8.88;3.63;;;;;;;14.93;73.60;98858.84;4168920;28;20028;-71
2022/06/13 06:00:57;;;;;;;5.70;3.22;;;;;;;14.98;73.71;98866.03;4169642;28;20036;-71
2022/06/13 06:02:57;;;;;;;5.45;3.13;;;;;;;14.98;72.04;98868.81;4169701;28;20029;-71
2022/06/13 06:04:58;;;;;;;6.50;3.25;;;;;;;15.02;72.22;98867.59;4170298;28;20047;-71
2022/06/13 06:06:58;;;;;;;5.35;3.35;;;;;;;14.89;72.00;98860.81;4169892;28;20357;-71
2022/06/13 06:08:59;;;;;;;5.80;3.17;;;;;;;14.94;73.18;98865.22;4168816;28;20290;-71
2022/06/13 06:11:00;;;;;;;7.15;4.07;;;;;;;14.96;72.92;98871.97;4170039;28;20041;-72
2022/06/13 06:13:00;;;;;;;8.65;2.88;;;;;;;14.99;72.46;98870.41;4168843;28;20520;-72
2022/06/13 06:15:00;;;;;;;6.50;2.72;;;;;;;14.97;72.97;98865.19;4169601;28;20037;-71
2022/06/13 06:17:01;;;;;;;12.40;3.28;;;;;;;15.00;73.36;98853.28;4169846;28;20036;-71
2022/06/13 06:19:01;;;;;;;4.35;2.70;;;;;;;15.04;73.74;98859.63;4169029;28;20086;-71
2022/06/13 06:21:01;;;;;;;7.10;2.97;;;;;;;15.18;72.11;98862.41;4169259;28;20021;-71
2022/06/13 06:23:03;;;;;;;7.18;3.25;;;;;;;15.25;71.85;98863.63;4169412;28;20057;-71
2022/06/13 06:25:04;;;;;;;6.97;3.10;;;;;;;15.25;70.77;98858.03;4170104;28;20112;-71
2022/06/13 06:27:04;;;;;;;8.05;3.38;;;;;;;15.27;70.78;98864.00;4168990;28;20053;-71
2022/06/13 06:29:05;;;;;;;5.53;3.47;;;;;;;15.29;70.79;98872.75;4168738;28;20064;-71
2022/06/13 06:31:05;;;;;;;5.90;2.80;;;;;;;15.27;70.95;98870.38;4169940;28;20543;-71
2022/06/13 06:33:06;;;;;;;7.38;3.28;;;;;;;15.23;71.27;98871.59;4169382;28;20392;-71
2022/06/13 06:35:06;;;;;;;7.95;3.20;;;;;;;15.23;71.10;98874.38;4169844;28;20043;-72
2022/06/13 06:37:07;;;;;;;6.95;3.30;;;;;;;15.21;71.49;98866.38;4170323;28;20426;-71
2022/06/13 06:39:07;;;;;;;6.10;2.90;;;;;;;15.25;72.19;98866.41;4172265;28;20025;-71
2022/06/13 06:41:08;;;;;;;4.72;3.20;;;;;;;15.25;72.36;98867.19;4172435;28;20538;-71
2022/06/13 06:43:09;;;;;;;4.90;2.97;;;;;;;15.28;72.25;98865.59;4172265;28;20131;-72
2022/06/13 06:45:11;;;;;;;6.63;3.35;;;;;;;15.27;72.11;98869.56;4172869;28;20370;-72
2022/06/13 06:47:12;;;;;;;6.72;3.58;;;;;;;15.26;72.51;98879.13;4172273;28;20033;-71
2022/06/13 06:49:12;;;;;;;6.85;3.35;;;;;;;15.32;72.58;98869.19;4171578;28;20116;-72
2022/06/13 06:51:14;;;;;;;9.00;3.75;;;;;;;15.38;72.39;98873.13;4172329;28;20070;-72
2022/06/13 06:53:17;;;;;;;5.88;2.92;;;;;;;15.52;72.90;98877.91;4172307;28;20032;-71
2022/06/13 06:59:58;;;;;;;6.47;3.25;;;;;;;15.86;70.37;98875.44;4159359;28;20207;-71
2022/06/13 07:02:00;;;;;;;5.10;3.17;;;;;;;15.77;70.87;98869.50;4172119;28;20061;-71
2022/06/13 07:04:00;;;;;;;6.50;3.20;;;;;;;15.84;71.37;98878.66;4172298;28;20037;-72
2022/06/13 07:06:01;;;;;;;4.85;2.90;;;;;;;15.98;71.34;98881.41;4172617;28;20041;-71
2022/06/13 07:08:01;;;;;;;9.35;3.08;;;;;;;16.01;70.63;98880.56;4172666;28;20074;-72
2022/06/13 07:10:02;;;;;;;8.00;3.13;;;;;;;16.15;70.78;98879.72;4171230;28;20101;-72
2022/06/13 07:12:02;;;;;;;6.35;2.97;;;;;;;16.29;70.62;98878.84;4172230;28;20148;-71
2022/06/13 07:14:03;;;;;;;5.38;3.33;;;;;;;16.37;70.94;98876.81;4172940;28;20033;-71
2022/06/13 07:16:03;;;;;;;9.55;3.78;;;;;;;16.42;69.79;98884.78;4171891;28;20032;-71
2022/06/13 07:18:04;;;;;;;7.72;3.35;;;;;;;16.48;69.13;98872.78;4171753;28;20025;-71
2022/06/13 07:20:04;;;;;;;7.03;3.30;;;;;;;16.67;67.94;98882.63;4171798;28;20618;-71
2022/06/13 07:22:07;;;;;;;5.40;3.22;;;;;;;16.92;66.91;98879.69;4171979;28;20104;-71
2022/06/13 07:24:07;;;;;;;9.30;3.60;;;;;;;17.02;66.23;98884.38;4171828;28;20052;-71
2022/06/13 07:26:08;;;;;;;6.20;3.45;;;;;;;17.02;66.44;98880.81;4171493;28;20029;-71
2022/06/13 07:28:08;;;;;;;10.73;3.45;;;;;;;16.89;66.21;98872.13;4172075;28;20037;-71
2022/06/13 07:30:09;;;;;;;7.95;3.65;;;;;;;16.76;67.19;98877.41;4171323;28;20759;-71
2022/06/13 07:32:22;;;;;;;6.65;3.38;;;;;;;16.67;67.18;98879.03;4172177;28;20481;-71
2022/06/13 07:34:24;;;;;;;;;;;;;;;16.54;68.14;98884.28;4172186;28;20055;-71
2022/06/13 07:36:25;;;;;;;10.80;3.83;;;;;;;16.58;68.51;98879.50;4171459;28;19909;-71
2022/06/13 07:38:25;;;;;;;9.20;3.85;;;;;;;16.59;68.79;98881.09;4171314;28;20358;-71
2022/06/13 07:40:26;;;;;;;9.70;3.85;;;;;;;16.57;69.05;98869.53;4171572;28;20452;-71
2022/06/13 07:42:36;;;;;;;11.00;3.78;;;;;;;16.60;68.71;98871.50;4171784;28;20033;-71
2022/06/13 07:44:40;;;;;;;12.07;3.72;;;;;;;16.70;68.64;98881.03;4171540;28;20025;-71
2022/06/13 07:46:41;;;;;;;8.30;3.42;;;;;;;16.63;69.32;98881.03;4172027;28;20262;-71
2022/06/13 07:48:41;;;;;;;6.35;3.65;;;;;;;16.55;69.07;98880.31;4170184;28;20115;-71
2022/06/13 07:50:42;;;;;;;6.25;3.28;;;;;;;16.32;69.52;98889.22;4171380;28;20060;-71
2022/06/13 07:52:42;;;;;;;8.38;4.00;;;;;;;16.45;68.19;98881.16;4171781;28;20025;-71
2022/06/13 07:54:43;;;;;;;9.57;3.75;;;;;;;16.41;68.40;98885.97;4171215;28;20461;-71
2022/06/13 07:56:44;;;;;;;9.80;3.47;;;;;;;16.51;69.41;98880.31;4171588;28;20469;-71
2022/06/13 07:58:46;;;;;;;8.40;3.67;;;;;;;16.68;69.24;98872.25;4171298;28;20215;-71
2022/06/13 08:00:49;;;;;;;4.88;3.88;;;;;;;16.88;67.20;98878.94;4171547;28;20029;-71
2022/06/13 08:02:50;;;;;;;9.45;3.30;;;;;;;16.83;63.94;98880.16;4171267;28;20025;-71
2022/06/13 08:04:50;;;;;;;7.35;3.13;;;;;;;16.93;63.91;98872.09;4171307;28;20032;-71
2022/06/13 08:06:50;;;;;;;7.10;4.03;;;;;;;16.77;63.74;98878.19;4171755;28;20040;-71
2022/06/13 08:08:51;;;;;;;5.85;3.75;;;;;;;16.76;63.58;98869.03;4170496;28;20041;-71
2022/06/13 08:10:54;;;;;;;9.95;3.33;;;;;;;16.65;63.74;98885.03;4171134;28;20037;-71
2022/06/13 08:12:55;;;;;;;6.10;3.03;;;;;;;16.90;63.56;98884.09;4171611;28;20033;-71
2022/06/13 08:14:55;;;;;;;5.97;3.13;;;;;;;16.99;64.43;98881.63;4171244;28;20444;-71
2022/06/13 08:16:56;;;;;;;6.03;2.90;;;;;;;16.90;63.63;98890.50;4171536;28;20037;-71
2022/06/13 08:18:56;;;;;;;7.60;3.42;;;;;;;16.85;64.45;98883.31;4170416;28;20392;-71
2022/06/13 08:20:56;;;;;;;9.38;3.50;;;;;;;17.08;64.62;98881.97;4171340;28;20505;-71
2022/06/13 08:22:59;;;;;;;9.80;3.45;;;;;;;17.08;64.36;98882.75;4170585;28;20032;-71
2022/06/13 08:25:00;;;;;;;7.63;3.17;;;;;;;17.33;63.55;98879.75;4171173;28;20116;-71
2022/06/13 08:27:01;;;;;;;7.20;3.58;;;;;;;17.02;62.54;98887.19;4171040;28;20108;-71
2022/06/13 08:29:01;;;;;;;7.47;3.55;;;;;;;17.22;62.31;98881.84;4170033;28;20029;-71
2022/06/13 08:31:05;;;;;;;7.20;3.05;;;;;;;17.25;62.32;98877.41;4170969;28;20060;-71
2022/06/13 08:33:06;;;;;;;7.25;2.80;;;;;;;17.21;60.49;98885.84;4169585;28;20481;-71
2022/06/13 08:35:07;;;;;;;8.60;2.90;;;;;;;16.97;62.96;98889.66;4171092;28;20337;-71
2022/06/13 08:37:07;;;;;;;8.48;2.97;;;;;;;16.97;62.78;98890.44;4170146;28;20049;-71
2022/06/13 08:39:08;;;;;;;7.82;3.50;;;;;;;16.79;62.79;98904.50;4170123;28;20250;-71
2022/06/13 08:41:11;;;;;;;7.97;3.30;;;;;;;16.88;64.71;98894.88;4170684;28;20033;-71
2022/06/13 08:43:15;;;;;;;7.57;3.25;;;;;;;16.76;63.92;98894.16;4171045;28;20043;-71
2022/06/13 08:45:38;;;;;;;5.68;2.97;;;;;;;16.85;63.27;98897.28;4171139;28;20483;-71
2022/06/13 08:47:47;;;;;;;10.18;3.47;;;;;;;16.92;62.13;98896.44;4171057;28;20401;-71
2022/06/13 08:50:01;;;;;;;7.22;3.05;;;;;;;16.78;61.81;98891.75;4169425;28;20043;-71
2022/06/13 08:52:19;;;;;;;7.85;3.47;;;;;;;17.12;62.54;98889.09;4170526;28;20412;-71
2022/06/13 08:54:26;;;;;;;3.50;2.58;;;;;;;17.35;60.11;98879.31;4170419;28;20510;-71
2022/06/13 08:56:34;;;;;;;6.10;2.67;;;;;;;17.78;58.20;98882.50;4170658;28;20036;-71
2022/06/13 08:58:42;;;;;;;6.55;2.70;;;;;;;17.91;56.94;98883.56;4169724;28;20476;-71
2022/06/13 09:00:52;;;;;;;4.68;2.58;;;;;;;18.06;54.16;98889.78;4169839;28;20029;-71
2022/06/13 09:03:01;;;;;;;5.82;2.60;;;;;;;17.75;54.33;98896.53;4170999;28;20032;-71
2022/06/13 09:05:14;;;;;;;7.35;2.53;;;;;;;17.95;53.13;98889.09;4169841;28;20025;-71
2022/06/13 09:07:23;;;;;;;6.50;2.60;;;;;;;18.03;51.75;98904.59;4170253;28;20025;-71
2022/06/13 09:09:27;;;;;;;5.88;2.15;;;;;;;18.27;50.08;98899.91;4169523;28;20036;-71
2022/06/13 09:11:44;;;;;;;7.03;3.22;;;;;;;18.36;50.37;98900.19;4170114;28;20047;-71
2022/06/13 09:14:02;;;;;;;5.85;2.03;;;;;;;18.47;48.13;98898.06;4170291;28;20021;-71
2022/06/13 09:16:18;;;;;;;3.70;2.25;;;;;;;18.60;46.16;98914.28;4170637;28;20164;-71
2022/06/13 09:18:48;;;;;;;5.30;2.17;;;;;;;18.09;46.90;98914.16;4169672;28;20183;-72
2022/06/13 09:21:09;;;;;;;4.43;2.10;;;;;;;18.14;47.04;98908.09;4169681;28;20029;-72
2022/06/13 09:23:34;;;;;;;5.85;2.25;;;;;;;18.04;47.89;98914.63;4169420;28;20036;-71
2022/06/13 09:25:42;;;;;;;4.47;2.35;;;;;;;18.33;50.71;98914.25;4170167;28;20047;-71
2022/06/13 09:28:10;;;;;;;6.15;2.40;;;;;;;18.76;51.18;98914.50;4170655;28;20025;-71
2022/06/13 09:30:19;;;;;;;8.95;2.03;;;;;;;18.91;45.77;98917.91;4169419;28;20111;-71
2022/06/13 09:32:25;;;;;;;4.40;2.33;;;;;;;18.69;45.62;98923.78;4169869;28;20029;-72
2022/06/13 09:34:41;;;;;;;5.63;2.53;;;;;;;18.63;46.39;98921.88;4170203;28;20028;-71
2022/06/13 09:37:02;;;;;;;4.18;1.90;;;;;;;18.58;45.83;98925.16;4168973;28;20541;-71
2022/06/13 09:39:07;;;;;;;6.47;2.45;;;;;;;18.65;47.55;98920.28;4168729;28;20389;-71
2022/06/13 09:41:32;;;;;;;5.78;2.28;;;;;;;18.18;47.93;98944.44;4170096;28;20083;-71
2022/06/13 09:44:00;;;;;;;6.60;2.20;;;;;;;17.77;50.20;98939.69;4168566;28;20078;-71
2022/06/13 09:46:28;;;;;;;6.03;2.42;;;;;;;17.63;52.19;98932.22;4168721;28;20088;-71
2022/06/13 09:48:35;;;;;;;3.75;2.38;;;;;;;17.31;53.40;98940.88;4168428;28;20105;-71
2022/06/13 09:50:45;;;;;;;7.50;2.63;;;;;;;17.71;53.87;98944.16;4169942;28;20029;-71
2022/06/13 09:53:20;;;;;;;5.22;2.42;;;;;;;17.75;52.97;98947.72;4170308;28;20444;-71
2022/06/13 09:55:32;;;;;;;12.13;2.78;;;;;;;18.18;51.79;98939.63;4169755;28;20155;-71
2022/06/13 09:57:50;;;;;;;9.82;2.30;;;;;;;18.27;49.63;98944.72;4169762;28;20116;-71
2022/06/13 10:00:11;;;;;;;5.43;2.30;;;;;;;18.31;52.01;98936.31;4169357;28;20041;-71
2022/06/13 10:02:25;;;;;;;7.07;2.58;;;;;;;18.17;52.20;98935.25;4169482;28;20037;-71
2022/06/13 10:04:47;;;;;;;6.38;2.67;;;;;;;17.95;52.39;98943.09;4169675;28;20473;-71
2022/06/13 10:07:00;;;;;;;6.40;2.42;;;;;;;17.81;51.91;98937.66;4169708;28;20029;-71
2022/06/13 10:09:35;;;;;;;7.95;2.60;;;;;;;17.84;53.35;98942.41;4168308;28;20329;-71
2022/06/13 10:12:03;;;;;;;7.93;2.40;;;;;;;18.20;53.86;98942.00;4169222;28;20044;-71